sensor_id;sensor_type;location;lat;lon;timestamp;pressure;altitude;pressure_sealevel;temperature;humidity
18652;BME280;9455;54.302;10.124;2024-01-06T00:01:04;100641.44;;;1.04;100.00
18652;BME280;9455;54.302;10.124;2024-01-06T00:03:31;100643.59;;;1.13;100.00
18652;BME280;9455;54.302;10.124;2024-01-06T00:05:58;100642.91;;;1.10;100.00
18652;BME280;9455;54.302;10.124;2024-01-06T00:08:25;100652.00;;;1.03;100.00
18652;BME280;9455;54.302;10.124;2024-01-06T00:10:51;100661.28;;;1.10;100.00
18652;BME280;9455;54.302;10.124;2024-01-06T00:13:18;100660.34;;;1.11;100.00
18652;BME280;9455;54.302;10.124;2024-01-06T00:15:46;100649.53;;;1.17;100.00
18652;BME280;9455;54.302;10.124;2024-01-06T00:18:12;100671.47;;;1.16;100.00
18652;BME280;9455;54.302;10.124;2024-01-06T00:20:39;100670.63;;;1.15;100.00
18652;BME280;9455;54.302;10.124;2024-01-06T00:23:06;100670.63;;;1.15;100.00
18652;BME280;9455;54.302;10.124;2024-01-06T00:25:32;100674.09;;;1.16;100.00
18652;BME280;9455;54.302;10.124;2024-01-06T00:27:59;100680.91;;;1.20;100.00
18652;BME280;9455;54.302;10.124;2024-01-06T00:30:25;100673.34;;;1.31;100.00
18652;BME280;9455;54.302;10.124;2024-01-06T00:32:53;100681.44;;;1.26;100.00
18652;BME280;9455;54.302;10.124;2024-01-06T00:35:20;100670.88;;;1.28;100.00
18652;BME280;9455;54.302;10.124;2024-01-06T00:37:46;100677.50;;;1.18;100.00
18652;BME280;9455;54.302;10.124;2024-01-06T00:40:13;100678.88;;;1.25;100.00
18652;BME280;9455;54.302;10.124;2024-01-06T00:42:40;100677.34;;;1.21;100.00
18652;BME280;9455;54.302;10.124;2024-01-06T00:45:07;100674.09;;;1.16;100.00
18652;BME280;9455;54.302;10.124;2024-01-06T00:47:34;100683.63;;;1.35;100.00
18652;BME280;9455;54.302;10.124;2024-01-06T00:50:02;100691.22;;;1.23;100.00
18652;BME280;9455;54.302;10.124;2024-01-06T00:52:29;100690.16;;;1.10;100.00
18652;BME280;9455;54.302;10.124;2024-01-06T00:54:55;100687.28;;;1.14;100.00
18652;BME280;9455;54.302;10.124;2024-01-06T00:57:22;100698.59;;;1.33;100.00
18652;BME280;9455;54.302;10.124;2024-01-06T00:59:49;100688.53;;;1.24;100.00
18652;BME280;9455;54.302;10.124;2024-01-06T01:02:16;100690.03;;;1.13;100.00
18652;BME280;9455;54.302;10.124;2024-01-06T01:04:42;100688.78;;;1.20;100.00
18652;BME280;9455;54.302;10.124;2024-01-06T01:07:10;100692.53;;;1.14;100.00
18652;BME280;9455;54.302;10.124;2024-01-06T01:09:38;100698.06;;;1.27;100.00
18652;BME280;9455;54.302;10.124;2024-01-06T01:12:05;100700.34;;;1.16;100.00
18652;BME280;9455;54.302;10.124;2024-01-06T01:14:31;100693.69;;;1.09;100.00
18652;BME280;9455;54.302;10.124;2024-01-06T01:16:58;100695.94;;;1.16;100.00
18652;BME280;9455;54.302;10.124;2024-01-06T01:19:25;100707.16;;;1.20;100.00
18652;BME280;9455;54.302;10.124;2024-01-06T01:21:51;100705.00;;;1.28;100.00
18652;BME280;9455;54.302;10.124;2024-01-06T01:24:22;100710.41;;;1.25;100.00
18652;BME280;9455;54.302;10.124;2024-01-06T01:26:48;100711.19;;;1.27;100.00
18652;BME280;9455;54.302;10.124;2024-01-06T01:29:15;100704.00;;;1.30;100.00
18652;BME280;9455;54.302;10.124;2024-01-06T01:31:42;100710.25;;;1.28;100.00
18652;BME280;9455;54.302;10.124;2024-01-06T01:34:08;100715.81;;;1.22;100.00
18652;BME280;9455;54.302;10.124;2024-01-06T01:36:35;100716.66;;;1.22;100.00
18652;BME280;9455;54.302;10.124;2024-01-06T01:39:02;100720.44;;;1.17;100.00
18652;BME280;9455;54.302;10.124;2024-01-06T01:41:30;100720.97;;;1.23;100.00
18652;BME280;9455;54.302;10.124;2024-01-06T01:43:56;100716.75;;;1.21;100.00
18652;BME280;9455;54.302;10.124;2024-01-06T01:46:25;100727.25;;;1.21;100.00
18652;BME280;9455;54.302;10.124;2024-01-06T01:48:52;100727.13;;;1.41;100.00
18652;BME280;9455;54.302;10.124;2024-01-06T01:51:20;100727.56;;;1.32;100.00
18652;BME280;9455;54.302;10.124;2024-01-06T01:53:47;100738.84;;;1.34;100.00
18652;BME280;9455;54.302;10.124;2024-01-06T01:56:15;100730.91;;;1.35;100.00
18652;BME280;9455;54.302;10.124;2024-01-06T01:58:43;100725.88;;;1.31;100.00
18652;BME280;9455;54.302;10.124;2024-01-06T02:01:09;100727.16;;;1.22;100.00
18652;BME280;9455;54.302;10.124;2024-01-06T02:03:36;100726.94;;;1.44;100.00
18652;BME280;9455;54.302;10.124;2024-01-06T02:06:03;100738.06;;;1.32;100.00
18652;BME280;9455;54.302;10.124;2024-01-06T02:08:30;100727.63;;;1.47;100.00
18652;BME280;9455;54.302;10.124;2024-01-06T02:10:56;100726.88;;;1.28;100.00
18652;BME280;9455;54.302;10.124;2024-01-06T02:13:23;100736.22;;;1.34;100.00
18652;BME280;9455;54.302;10.124;2024-01-06T02:15:51;100741.63;;;1.31;100.00
18652;BME280;9455;54.302;10.124;2024-01-06T02:18:18;100738.84;;;1.34;100.00
18652;BME280;9455;54.302;10.124;2024-01-06T02:20:46;100748.28;;;1.38;100.00
18652;BME280;9455;54.302;10.124;2024-01-06T02:23:15;100746.25;;;1.43;100.00
18652;BME280;9455;54.302;10.124;2024-01-06T02:25:42;100746.31;;;1.24;100.00
18652;BME280;9455;54.302;10.124;2024-01-06T02:28:09;100735.59;;;1.46;100.00
18652;BME280;9455;54.302;10.124;2024-01-06T02:30:35;100750.81;;;1.39;100.00
18652;BME280;9455;54.302;10.124;2024-01-06T02:33:02;100743.84;;;1.38;100.00
18652;BME280;9455;54.302;10.124;2024-01-06T02:35:28;100746.56;;;1.37;100.00
18652;BME280;9455;54.302;10.124;2024-01-06T02:37:55;100752.44;;;1.25;100.00
18652;BME280;9455;54.302;10.124;2024-01-06T02:40:23;100757.84;;;1.39;100.00
18652;BME280;9455;54.302;10.124;2024-01-06T02:42:50;100761.69;;;1.32;100.00
18652;BME280;9455;54.302;10.124;2024-01-06T02:45:16;100774.38;;;1.24;100.00
18652;BME280;9455;54.302;10.124;2024-01-06T02:47:43;100762.97;;;1.42;100.00
18652;BME280;9455;54.302;10.124;2024-01-06T02:50:09;100776.38;;;1.36;100.00
18652;BME280;9455;54.302;10.124;2024-01-06T02:52:36;100763.16;;;1.37;100.00
18652;BME280;9455;54.302;10.124;2024-01-06T02:55:03;100772.00;;;1.36;100.00
18652;BME280;9455;54.302;10.124;2024-01-06T02:57:31;100771.38;;;1.48;100.00
18652;BME280;9455;54.302;10.124;2024-01-06T02:59:58;100776.94;;;1.59;100.00
18652;BME280;9455;54.302;10.124;2024-01-06T03:02:24;100777.16;;;1.38;100.00
18652;BME280;9455;54.302;10.124;2024-01-06T03:04:51;100774.84;;;1.32;100.00
18652;BME280;9455;54.302;10.124;2024-01-06T03:07:18;100769.59;;;1.32;100.00
18652;BME280;9455;54.302;10.124;2024-01-06T03:09:44;100775.78;;;1.48;100.00
18652;BME280;9455;54.302;10.124;2024-01-06T03:12:11;100777.78;;;1.43;100.00
18652;BME280;9455;54.302;10.124;2024-01-06T03:14:39;100776.94;;;1.59;100.00
18652;BME280;9455;54.302;10.124;2024-01-06T03:17:05;100767.13;;;1.46;100.00
18652;BME280;9455;54.302;10.124;2024-01-06T03:19:32;100772.81;;;1.37;100.00
18652;BME280;9455;54.302;10.124;2024-01-06T03:21:59;100774.69;;;1.35;100.00
18652;BME280;9455;54.302;10.124;2024-01-06T03:24:26;100787.03;;;1.33;100.00
18652;BME280;9455;54.302;10.124;2024-01-06T03:26:53;100781.19;;;1.45;100.00
18652;BME280;9455;54.302;10.124;2024-01-06T03:29:20;100783.81;;;1.45;100.00
18652;BME280;9455;54.302;10.124;2024-01-06T03:31:48;100787.59;;;1.39;100.00
18652;BME280;9455;54.302;10.124;2024-01-06T03:34:15;100785.59;;;1.44;100.00
18652;BME280;9455;54.302;10.124;2024-01-06T03:36:41;100785.19;;;1.35;100.00
18652;BME280;9455;54.302;10.124;2024-01-06T03:39:08;100788.84;;;1.49;100.00
18652;BME280;9455;54.302;10.124;2024-01-06T03:41:35;100789.06;;;1.45;100.00
18652;BME280;9455;54.302;10.124;2024-01-06T03:44:02;100803.59;;;1.35;100.00
18652;BME280;9455;54.302;10.124;2024-01-06T03:46:28;100805.13;;;1.39;100.00
18652;BME280;9455;54.302;10.124;2024-01-06T03:48:56;100791.41;;;1.51;100.00
18652;BME280;9455;54.302;10.124;2024-01-06T03:51:23;100807.41;;;1.46;100.00
18652;BME280;9455;54.302;10.124;2024-01-06T03:53:50;100811.00;;;1.44;100.00
18652;BME280;9455;54.302;10.124;2024-01-06T03:56:16;100809.94;;;1.48;100.00
18652;BME280;9455;54.302;10.124;2024-01-06T03:58:43;100808.88;;;1.52;100.00
18652;BME280;9455;54.302;10.124;2024-01-06T04:01:10;100821.50;;;1.44;100.00
18652;BME280;9455;54.302;10.124;2024-01-06T04:03:37;100813.81;;;1.41;100.00
18652;BME280;9455;54.302;10.124;2024-01-06T04:06:06;100818.25;;;1.39;100.00
18652;BME280;9455;54.302;10.124;2024-01-06T04:08:33;100824.38;;;1.39;100.00
18652;BME280;9455;54.302;10.124;2024-01-06T04:11:00;100822.22;;;1.47;100.00
18652;BME280;9455;54.302;10.124;2024-01-06T04:13:26;100821.69;;;1.41;100.00
18652;BME280;9455;54.302;10.124;2024-01-06T04:15:53;100834.31;;;1.33;100.00
18652;BME280;9455;54.302;10.124;2024-01-06T04:18:20;100837.88;;;1.32;100.00
18652;BME280;9455;54.302;10.124;2024-01-06T04:20:46;100836.03;;;1.34;100.00
18652;BME280;9455;54.302;10.124;2024-01-06T04:23:14;100842.84;;;1.38;100.00
18652;BME280;9455;54.302;10.124;2024-01-06T04:25:41;100841.56;;;1.28;100.00
18652;BME280;9455;54.302;10.124;2024-01-06T04:28:07;100847.69;;;1.28;100.00
18652;BME280;9455;54.302;10.124;2024-01-06T04:30:34;100844.13;;;1.29;100.00
18652;BME280;9455;54.302;10.124;2024-01-06T04:33:00;100850.72;;;1.38;100.00
18652;BME280;9455;54.302;10.124;2024-01-06T04:35:27;100852.94;;;1.28;100.00
18652;BME280;9455;54.302;10.124;2024-01-06T04:37:54;100848.81;;;1.23;100.00
18652;BME280;9455;54.302;10.124;2024-01-06T04:40:22;100849.47;;;1.28;100.00
18652;BME280;9455;54.302;10.124;2024-01-06T04:42:48;100858.75;;;1.35;100.00
18652;BME280;9455;54.302;10.124;2024-01-06T04:45:15;100865.00;;;1.32;100.00
18652;BME280;9455;54.302;10.124;2024-01-06T04:47:44;100863.22;;;1.33;100.00
18652;BME280;9455;54.302;10.124;2024-01-06T04:50:11;100867.31;;;1.38;100.00
18652;BME280;9455;54.302;10.124;2024-01-06T04:52:37;100867.13;;;1.24;100.00
18652;BME280;9455;54.302;10.124;2024-01-06T04:55:04;100867.69;;;1.31;100.00
18652;BME280;9455;54.302;10.124;2024-01-06T04:57:32;100877.91;;;1.37;100.00
18652;BME280;9455;54.302;10.124;2024-01-06T04:59:59;100883.59;;;1.28;100.00
18652;BME280;9455;54.302;10.124;2024-01-06T05:02:26;100877.75;;;1.21;100.00
18652;BME280;9455;54.302;10.124;2024-01-06T05:04:52;100885.16;;;1.32;100.00
18652;BME280;9455;54.302;10.124;2024-01-06T05:07:19;100888.72;;;1.31;100.00
18652;BME280;9455;54.302;10.124;2024-01-06T05:09:45;100891.75;;;1.22;100.00
18652;BME280;9455;54.302;10.124;2024-01-06T05:12:12;100893.81;;;1.34;100.00
18652;BME280;9455;54.302;10.124;2024-01-06T05:14:40;100901.06;;;1.29;100.00
18652;BME280;9455;54.302;10.124;2024-01-06T05:17:07;100908.31;;;1.24;100.00
18652;BME280;9455;54.302;10.124;2024-01-06T05:19:34;100908.44;;;1.39;100.00
18652;BME280;9455;54.302;10.124;2024-01-06T05:22:01;100908.16;;;1.27;100.00
18652;BME280;9455;54.302;10.124;2024-01-06T05:24:28;100912.16;;;1.35;100.00
18652;BME280;9455;54.302;10.124;2024-01-06T05:26:55;100912.56;;;1.26;100.00
18652;BME280;9455;54.302;10.124;2024-01-06T05:29:21;100919.22;;;1.33;100.00
18652;BME280;9455;54.302;10.124;2024-01-06T05:31:50;100917.88;;;1.25;100.00
18652;BME280;9455;54.302;10.124;2024-01-06T05:34:17;100922.78;;;1.32;100.00
18652;BME280;9455;54.302;10.124;2024-01-06T05:36:43;100932.16;;;1.38;100.00
18652;BME280;9455;54.302;10.124;2024-01-06T05:39:10;100936.81;;;1.31;100.00
18652;BME280;9455;54.302;10.124;2024-01-06T05:41:37;100943.06;;;1.29;100.00
18652;BME280;9455;54.302;10.124;2024-01-06T05:44:04;100937.41;;;1.38;100.00
18652;BME280;9455;54.302;10.124;2024-01-06T05:46:31;100951.31;;;1.40;100.00
18652;BME280;9455;54.302;10.124;2024-01-06T05:48:58;100951.75;;;1.31;100.00
18652;BME280;9455;54.302;10.124;2024-01-06T05:51:25;100956.16;;;1.30;100.00
18652;BME280;9455;54.302;10.124;2024-01-06T05:53:52;100960.69;;;1.27;100.00
18652;BME280;9455;54.302;10.124;2024-01-06T05:56:22;100969.47;;;1.26;100.00
18652;BME280;9455;54.302;10.124;2024-01-06T05:58:50;100974.03;;;1.22;100.00
18652;BME280;9455;54.302;10.124;2024-01-06T06:01:17;100972.91;;;1.28;100.00
18652;BME280;9455;54.302;10.124;2024-01-06T06:03:44;100976.03;;;1.36;100.00
18652;BME280;9455;54.302;10.124;2024-01-06T06:06:12;100994.19;;;1.22;100.00
18652;BME280;9455;54.302;10.124;2024-01-06T06:08:40;100982.13;;;1.18;100.00
18652;BME280;9455;54.302;10.124;2024-01-06T06:11:07;100992.06;;;1.30;100.00
18652;BME280;9455;54.302;10.124;2024-01-06T06:13:36;100992.41;;;1.22;100.00
18652;BME280;9455;54.302;10.124;2024-01-06T06:16:03;100999.69;;;1.16;100.00
18652;BME280;9455;54.302;10.124;2024-01-06T06:18:30;101002.94;;;1.22;100.00
18652;BME280;9455;54.302;10.124;2024-01-06T06:20:58;101007.66;;;1.14;100.00
18652;BME280;9455;54.302;10.124;2024-01-06T06:23:26;101013.63;;;1.18;100.00
18652;BME280;9455;54.302;10.124;2024-01-06T06:25:53;101015.06;;;1.25;100.00
18652;BME280;9455;54.302;10.124;2024-01-06T06:28:19;101002.94;;;1.22;100.00
18652;BME280;9455;54.302;10.124;2024-01-06T06:30:46;101012.50;;;1.23;100.00
18652;BME280;9455;54.302;10.124;2024-01-06T06:33:12;101019.38;;;1.26;100.00
18652;BME280;9455;54.302;10.124;2024-01-06T06:35:39;101028.69;;;1.33;100.00
18652;BME280;9455;54.302;10.124;2024-01-06T06:38:06;101023.88;;;1.24;100.00
18652;BME280;9455;54.302;10.124;2024-01-06T06:40:34;101030.81;;;1.25;100.00
18652;BME280;9455;54.302;10.124;2024-01-06T06:43:00;101037.31;;;1.36;100.00
18652;BME280;9455;54.302;10.124;2024-01-06T06:45:27;101040.59;;;1.21;100.00
18652;BME280;9455;54.302;10.124;2024-01-06T06:47:53;101051.69;;;1.28;100.00
18652;BME280;9455;54.302;10.124;2024-01-06T06:50:20;101053.53;;;1.26;100.00
18652;BME280;9455;54.302;10.124;2024-01-06T06:52:47;101052.50;;;1.10;100.00
18652;BME280;9455;54.302;10.124;2024-01-06T06:55:13;101055.06;;;1.11;100.00
18652;BME280;9455;54.302;10.124;2024-01-06T06:57:41;101064.16;;;1.23;100.00
18652;BME280;9455;54.302;10.124;2024-01-06T07:00:08;101066.53;;;1.29;100.00
18652;BME280;9455;54.302;10.124;2024-01-06T07:02:35;101070.28;;;1.23;100.00
18652;BME280;9455;54.302;10.124;2024-01-06T07:05:02;101077.97;;;1.28;100.00
18652;BME280;9455;54.302;10.124;2024-01-06T07:07:29;101079.97;;;1.41;100.00
18652;BME280;9455;54.302;10.124;2024-01-06T07:09:56;101085.06;;;1.26;100.00
18652;BME280;9455;54.302;10.124;2024-01-06T07:12:23;101087.53;;;1.29;100.00
18652;BME280;9455;54.302;10.124;2024-01-06T07:14:50;101092.34;;;1.39;100.00
18652;BME280;9455;54.302;10.124;2024-01-06T07:17:17;101090.69;;;1.37;100.00
18652;BME280;9455;54.302;10.124;2024-01-06T07:19:44;101092.66;;;1.32;100.00
18652;BME280;9455;54.302;10.124;2024-01-06T07:22:10;101087.69;;;1.26;100.00
18652;BME280;9455;54.302;10.124;2024-01-06T07:24:37;101087.91;;;1.40;100.00
18652;BME280;9455;54.302;10.124;2024-01-06T07:27:03;101101.00;;;1.21;100.00
18652;BME280;9455;54.302;10.124;2024-01-06T07:29:30;101101.97;;;1.39;100.00
18652;BME280;9455;54.302;10.124;2024-01-06T07:31:58;101109.41;;;1.29;100.00
18652;BME280;9455;54.302;10.124;2024-01-06T07:34:25;101114.88;;;1.25;100.00
18652;BME280;9455;54.302;10.124;2024-01-06T07:36:52;101109.06;;;1.37;100.00
18652;BME280;9455;54.302;10.124;2024-01-06T07:39:19;101110.19;;;1.31;100.00
18652;BME280;9455;54.302;10.124;2024-01-06T07:41:45;101120.50;;;1.36;100.00
18652;BME280;9455;54.302;10.124;2024-01-06T07:44:12;101114.31;;;1.37;100.00
18652;BME280;9455;54.302;10.124;2024-01-06T07:46:41;101123.88;;;1.39;100.00
18652;BME280;9455;54.302;10.124;2024-01-06T07:49:09;101135.50;;;1.34;100.00
18652;BME280;9455;54.302;10.124;2024-01-06T07:51:35;101128.50;;;1.33;100.00
18652;BME280;9455;54.302;10.124;2024-01-06T07:54:02;101143.38;;;1.34;100.00
18652;BME280;9455;54.302;10.124;2024-01-06T07:56:30;101127.88;;;1.48;100.00
18652;BME280;9455;54.302;10.124;2024-01-06T07:58:57;101139.88;;;1.33;100.00
18652;BME280;9455;54.302;10.124;2024-01-06T08:01:23;101142.19;;;1.41;100.00
18652;BME280;9455;54.302;10.124;2024-01-06T08:03:50;101136.78;;;1.44;100.00
18652;BME280;9455;54.302;10.124;2024-01-06T08:06:18;101145.47;;;1.46;100.00
18652;BME280;9455;54.302;10.124;2024-01-06T08:08:45;101153.09;;;1.32;100.00
18652;BME280;9455;54.302;10.124;2024-01-06T08:11:12;101151.97;;;1.37;100.00
18652;BME280;9455;54.302;10.124;2024-01-06T08:13:38;101164.91;;;1.42;100.00
18652;BME280;9455;54.302;10.124;2024-01-06T08:16:05;101165.41;;;1.30;100.00
18652;BME280;9455;54.302;10.124;2024-01-06T08:18:32;101171.81;;;1.44;100.00
18652;BME280;9455;54.302;10.124;2024-01-06T08:20:59;101170.88;;;1.45;100.00
18652;BME280;9455;54.302;10.124;2024-01-06T08:23:26;101181.44;;;1.44;100.00
18652;BME280;9455;54.302;10.124;2024-01-06T08:25:53;101175.16;;;1.48;100.00
18652;BME280;9455;54.302;10.124;2024-01-06T08:28:20;101188.50;;;1.43;100.00
18652;BME280;9455;54.302;10.124;2024-01-06T08:30:48;101191.25;;;1.40;100.00
18652;BME280;9455;54.302;10.124;2024-01-06T08:33:15;101189.31;;;1.44;100.00
18652;BME280;9455;54.302;10.124;2024-01-06T08:35:43;101207.81;;;1.42;100.00
18652;BME280;9455;54.302;10.124;2024-01-06T08:38:09;101203.78;;;1.54;100.00
18652;BME280;9455;54.302;10.124;2024-01-06T08:40:37;101208.53;;;1.46;100.00
18652;BME280;9455;54.302;10.124;2024-01-06T08:43:04;101210.16;;;1.48;100.00
18652;BME280;9455;54.302;10.124;2024-01-06T08:45:30;101220.88;;;1.64;100.00
18652;BME280;9455;54.302;10.124;2024-01-06T08:47:57;101222.91;;;1.77;100.00
18652;BME280;9455;54.302;10.124;2024-01-06T08:50:24;101214.28;;;1.54;100.00
18652;BME280;9455;54.302;10.124;2024-01-06T08:52:50;101228.25;;;1.76;100.00
18652;BME280;9455;54.302;10.124;2024-01-06T08:55:17;101228.03;;;1.60;100.00
18652;BME280;9455;54.302;10.124;2024-01-06T08:57:45;101233.25;;;1.62;100.00
18652;BME280;9455;54.302;10.124;2024-01-06T09:00:12;101237.94;;;1.74;100.00
18652;BME280;9455;54.302;10.124;2024-01-06T09:02:39;101241.84;;;1.65;100.00
18652;BME280;9455;54.302;10.124;2024-01-06T09:05:06;101245.00;;;1.53;100.00
18652;BME280;9455;54.302;10.124;2024-01-06T09:07:33;101248.28;;;1.58;100.00
18652;BME280;9455;54.302;10.124;2024-01-06T09:09:59;101254.84;;;1.68;100.00
18652;BME280;9455;54.302;10.124;2024-01-06T09:12:26;101258.47;;;1.66;100.00
18652;BME280;9455;54.302;10.124;2024-01-06T09:14:54;101269.03;;;1.64;100.00
18652;BME280;9455;54.302;10.124;2024-01-06T09:17:21;101265.88;;;1.76;100.00
18652;BME280;9455;54.302;10.124;2024-01-06T09:19:48;101269.47;;;1.54;100.00
18652;BME280;9455;54.302;10.124;2024-01-06T09:22:14;101287.22;;;1.49;100.00
18652;BME280;9455;54.302;10.124;2024-01-06T09:24:41;101285.13;;;1.57;100.00
18652;BME280;9455;54.302;10.124;2024-01-06T09:27:08;101277.91;;;1.62;100.00
18652;BME280;9455;54.302;10.124;2024-01-06T09:29:34;101305.16;;;1.59;100.00
18652;BME280;9455;54.302;10.124;2024-01-06T09:32:03;101298.72;;;1.66;100.00
18652;BME280;9455;54.302;10.124;2024-01-06T09:34:29;101296.72;;;1.73;100.00
18652;BME280;9455;54.302;10.124;2024-01-06T09:36:56;101310.09;;;1.67;100.00
18652;BME280;9455;54.302;10.124;2024-01-06T09:39:22;101309.34;;;1.65;100.00
18652;BME280;9455;54.302;10.124;2024-01-06T09:41:49;101315.44;;;1.65;100.00
18652;BME280;9455;54.302;10.124;2024-01-06T09:44:16;101313.41;;;1.72;100.00
18652;BME280;9455;54.302;10.124;2024-01-06T09:46:44;101310.63;;;1.55;100.00
18652;BME280;9455;54.302;10.124;2024-01-06T09:49:12;101319.97;;;1.62;100.00
18652;BME280;9455;54.302;10.124;2024-01-06T09:51:40;101322.19;;;1.71;100.00
18652;BME280;9455;54.302;10.124;2024-01-06T09:54:09;101318.91;;;1.66;100.00
18652;BME280;9455;54.302;10.124;2024-01-06T09:56:36;101327.06;;;1.60;100.00
18652;BME280;9455;54.302;10.124;2024-01-06T09:59:02;101332.72;;;1.71;100.00
18652;BME280;9455;54.302;10.124;2024-01-06T10:01:29;101336.91;;;1.75;100.00
18652;BME280;9455;54.302;10.124;2024-01-06T10:03:56;101346.84;;;1.68;100.00
18652;BME280;9455;54.302;10.124;2024-01-06T10:06:24;101342.75;;;1.83;100.00
18652;BME280;9455;54.302;10.124;2024-01-06T10:08:52;101337.19;;;1.69;100.00
18652;BME280;9455;54.302;10.124;2024-01-06T10:11:18;101340.72;;;1.68;100.00
18652;BME280;9455;54.302;10.124;2024-01-06T10:13:48;101348.47;;;1.71;100.00
18652;BME280;9455;54.302;10.124;2024-01-06T10:16:15;101347.44;;;1.75;100.00
18652;BME280;9455;54.302;10.124;2024-01-06T10:18:41;101357.94;;;1.75;100.00
18652;BME280;9455;54.302;10.124;2024-01-06T10:21:08;101342.78;;;1.81;100.00
18652;BME280;9455;54.302;10.124;2024-01-06T10:23:36;101354.44;;;1.76;100.00
18652;BME280;9455;54.302;10.124;2024-01-06T10:26:03;101354.38;;;1.77;100.00
18652;BME280;9455;54.302;10.124;2024-01-06T10:28:30;101353.88;;;1.68;100.00
18652;BME280;9455;54.302;10.124;2024-01-06T10:30:57;101356.50;;;1.68;100.00
18652;BME280;9455;54.302;10.124;2024-01-06T10:33:25;101348.75;;;1.65;100.00
18652;BME280;9455;54.302;10.124;2024-01-06T10:35:53;101352.09;;;1.68;100.00
18652;BME280;9455;54.302;10.124;2024-01-06T10:38:20;101356.03;;;1.58;100.00
18652;BME280;9455;54.302;10.124;2024-01-06T10:40:58;101354.31;;;1.79;100.00
18652;BME280;9455;54.302;10.124;2024-01-06T10:43:26;101365.31;;;1.67;100.00
18652;BME280;9455;54.302;10.124;2024-01-06T10:45:55;101366.00;;;1.72;100.00
18652;BME280;9455;54.302;10.124;2024-01-06T10:48:24;101373.13;;;1.90;100.00
18652;BME280;9455;54.302;10.124;2024-01-06T10:50:50;101372.03;;;1.74;100.00
18652;BME280;9455;54.302;10.124;2024-01-06T10:53:18;101375.81;;;1.67;100.00
18652;BME280;9455;54.302;10.124;2024-01-06T10:55:49;101384.00;;;1.81;100.00
18652;BME280;9455;54.302;10.124;2024-01-06T10:58:17;101383.75;;;1.87;100.00
18652;BME280;9455;54.302;10.124;2024-01-06T11:00:44;101376.63;;;1.69;100.00
18652;BME280;9455;54.302;10.124;2024-01-06T11:03:13;101392.50;;;1.87;100.00
18652;BME280;9455;54.302;10.124;2024-01-06T11:05:41;101379.66;;;1.80;100.00
18652;BME280;9455;54.302;10.124;2024-01-06T11:08:08;101386.81;;;1.76;100.00
18652;BME280;9455;54.302;10.124;2024-01-06T11:10:36;101379.97;;;1.72;100.00
18652;BME280;9455;54.302;10.124;2024-01-06T11:13:09;101381.44;;;1.79;100.00
18652;BME280;9455;54.302;10.124;2024-01-06T11:15:42;101386.34;;;1.67;100.00
18652;BME280;9455;54.302;10.124;2024-01-06T11:18:08;101388.47;;;1.79;100.00
18652;BME280;9455;54.302;10.124;2024-01-06T11:20:35;101383.78;;;1.65;100.00
18652;BME280;9455;54.302;10.124;2024-01-06T11:23:18;101391.47;;;1.70;100.00
18652;BME280;9455;54.302;10.124;2024-01-06T11:25:46;101388.53;;;1.56;100.00
18652;BME280;9455;54.302;10.124;2024-01-06T11:28:12;101387.69;;;1.77;100.00
18652;BME280;9455;54.302;10.124;2024-01-06T11:30:40;101390.81;;;1.65;100.00
18652;BME280;9455;54.302;10.124;2024-01-06T11:33:08;101390.66;;;1.68;100.00
18652;BME280;9455;54.302;10.124;2024-01-06T11:35:37;101394.91;;;1.72;100.00
18652;BME280;9455;54.302;10.124;2024-01-06T11:38:06;101391.06;;;1.59;100.00
18652;BME280;9455;54.302;10.124;2024-01-06T11:40:36;101389.88;;;1.66;100.00
18652;BME280;9455;54.302;10.124;2024-01-06T11:43:04;101388.03;;;1.68;100.00
18652;BME280;9455;54.302;10.124;2024-01-06T11:45:33;101383.66;;;1.68;100.00
18652;BME280;9455;54.302;10.124;2024-01-06T11:48:03;101401.63;;;1.79;100.00
18652;BME280;9455;54.302;10.124;2024-01-06T11:50:31;101392.53;;;1.66;100.00
18652;BME280;9455;54.302;10.124;2024-01-06T11:52:58;101405.53;;;1.69;100.00
18652;BME280;9455;54.302;10.124;2024-01-06T11:55:26;101400.41;;;1.66;100.00
18652;BME280;9455;54.302;10.124;2024-01-06T11:57:54;101402.84;;;1.70;100.00
18652;BME280;9455;54.302;10.124;2024-01-06T12:00:21;101400.75;;;1.78;100.00
18652;BME280;9455;54.302;10.124;2024-01-06T12:02:48;101403.50;;;1.97;100.00
18652;BME280;9455;54.302;10.124;2024-01-06T12:05:17;101409.94;;;1.90;100.00
18652;BME280;9455;54.302;10.124;2024-01-06T12:07:53;101413.59;;;1.86;100.00
18652;BME280;9455;54.302;10.124;2024-01-06T12:10:20;101415.97;;;1.92;100.00
18652;BME280;9455;54.302;10.124;2024-01-06T12:12:55;101422.94;;;1.93;100.00
18652;BME280;9455;54.302;10.124;2024-01-06T12:15:21;101417.06;;;1.86;100.00
18652;BME280;9455;54.302;10.124;2024-01-06T12:17:48;101412.91;;;2.02;100.00
18652;BME280;9455;54.302;10.124;2024-01-06T12:20:15;101415.78;;;1.96;100.00
18652;BME280;9455;54.302;10.124;2024-01-06T12:22:43;101416.16;;;1.87;100.00
18652;BME280;9455;54.302;10.124;2024-01-06T12:25:10;101415.78;;;1.96;100.00
18652;BME280;9455;54.302;10.124;2024-01-06T12:27:42;101414.50;;;1.85;100.00
18652;BME280;9455;54.302;10.124;2024-01-06T12:30:12;101415.00;;;1.73;100.00
18652;BME280;9455;54.302;10.124;2024-01-06T12:32:41;101415.38;;;1.85;100.00
18652;BME280;9455;54.302;10.124;2024-01-06T12:35:09;101419.81;;;2.05;100.00
18652;BME280;9455;54.302;10.124;2024-01-06T12:37:37;101421.56;;;2.04;100.00
18652;BME280;9455;54.302;10.124;2024-01-06T12:40:06;101421.91;;;1.97;100.00
18652;BME280;9455;54.302;10.124;2024-01-06T12:42:34;101422.69;;;1.99;100.00
18652;BME280;9455;54.302;10.124;2024-01-06T12:45:01;101427.34;;;1.92;100.00
18652;BME280;9455;54.302;10.124;2024-01-06T12:47:28;101426.94;;;1.81;100.00
18652;BME280;9455;54.302;10.124;2024-01-06T12:49:55;101432.91;;;1.85;100.00